Terminal Aerodrome Forecast
Issued by NWS Cleveland, OH

Home | Current Version | Previous Version | Text Only | Print | Product List | Glossary Off
Versions: 1 2 3 4 5 6 7 8 9 10 11 12 13 14 15 16 17 18

000
FTUS41 KCLE 202343
TAFERI
TAF
KERI 202343Z 2100/2124 07014KT P6SM SCT060 BKN100
     FM210400 12015KT P6SM BKN100
     FM210900 14015KT P6SM VCSH OVC070
     FM211600 16014KT P6SM -SHRA VCTS OVC050CB=

USA.gov is the U.S. government's official web portal to all federal, state and local government web resources and services.